sensor_id;sensor_type;location;lat;lon;timestamp;temperature;humidity
4411;DHT22;2218;51.408;7.208;2022-08-01T00:02:18;24.00;51.70
4411;DHT22;2218;51.408;7.208;2022-08-01T00:04:45;24.00;51.80
4411;DHT22;2218;51.408;7.208;2022-08-01T00:07:12;24.00;51.90
4411;DHT22;2218;51.408;7.208;2022-08-01T00:09:40;24.00;51.90
4411;DHT22;2218;51.408;7.208;2022-08-01T00:12:08;24.00;52.00
4411;DHT22;2218;51.408;7.208;2022-08-01T00:14:35;24.00;51.90
4411;DHT22;2218;51.408;7.208;2022-08-01T00:17:02;24.00;52.00
4411;DHT22;2218;51.408;7.208;2022-08-01T00:19:29;24.00;52.00
4411;DHT22;2218;51.408;7.208;2022-08-01T00:21:56;24.00;52.00
4411;DHT22;2218;51.408;7.208;2022-08-01T00:24:23;24.00;52.10
4411;DHT22;2218;51.408;7.208;2022-08-01T00:26:52;24.00;52.10
4411;DHT22;2218;51.408;7.208;2022-08-01T00:29:19;24.00;52.10
4411;DHT22;2218;51.408;7.208;2022-08-01T00:31:46;24.00;52.20
4411;DHT22;2218;51.408;7.208;2022-08-01T00:34:12;24.00;52.20
4411;DHT22;2218;51.408;7.208;2022-08-01T00:36:39;24.00;52.20
4411;DHT22;2218;51.408;7.208;2022-08-01T00:39:07;24.00;52.20
4411;DHT22;2218;51.408;7.208;2022-08-01T00:41:34;24.00;52.30
4411;DHT22;2218;51.408;7.208;2022-08-01T00:44:03;24.00;52.30
4411;DHT22;2218;51.408;7.208;2022-08-01T00:46:32;24.00;52.40
4411;DHT22;2218;51.408;7.208;2022-08-01T00:48:59;24.00;52.40
4411;DHT22;2218;51.408;7.208;2022-08-01T00:51:27;24.00;52.40
4411;DHT22;2218;51.408;7.208;2022-08-01T00:53:54;24.00;52.40
4411;DHT22;2218;51.408;7.208;2022-08-01T00:56:24;24.00;52.50
4411;DHT22;2218;51.408;7.208;2022-08-01T00:58:53;24.00;52.50
4411;DHT22;2218;51.408;7.208;2022-08-01T01:01:22;24.00;52.50
4411;DHT22;2218;51.408;7.208;2022-08-01T01:03:50;24.00;52.50
4411;DHT22;2218;51.408;7.208;2022-08-01T01:06:33;24.00;52.50
4411;DHT22;2218;51.408;7.208;2022-08-01T01:09:16;23.90;52.60
4411;DHT22;2218;51.408;7.208;2022-08-01T01:11:57;24.00;52.60
4411;DHT22;2218;51.408;7.208;2022-08-01T01:14:37;24.00;52.70
4411;DHT22;2218;51.408;7.208;2022-08-01T01:17:12;24.00;52.70
4411;DHT22;2218;51.408;7.208;2022-08-01T01:19:47;23.90;52.70
4411;DHT22;2218;51.408;7.208;2022-08-01T01:22:23;23.90;52.80
4411;DHT22;2218;51.408;7.208;2022-08-01T01:25:14;23.90;53.20
4411;DHT22;2218;51.408;7.208;2022-08-01T01:28:02;24.00;52.80
4411;DHT22;2218;51.408;7.208;2022-08-01T01:30:38;24.00;52.90
4411;DHT22;2218;51.408;7.208;2022-08-01T01:33:11;24.00;52.90
4411;DHT22;2218;51.408;7.208;2022-08-01T01:35:44;23.90;52.80
4411;DHT22;2218;51.408;7.208;2022-08-01T01:38:20;24.00;52.90
4411;DHT22;2218;51.408;7.208;2022-08-01T01:40:50;24.00;53.00
4411;DHT22;2218;51.408;7.208;2022-08-01T01:43:20;24.00;52.90
4411;DHT22;2218;51.408;7.208;2022-08-01T01:45:50;24.00;53.00
4411;DHT22;2218;51.408;7.208;2022-08-01T01:48:19;24.00;53.00
4411;DHT22;2218;51.408;7.208;2022-08-01T01:50:49;23.90;52.90
4411;DHT22;2218;51.408;7.208;2022-08-01T01:53:20;24.00;53.00
4411;DHT22;2218;51.408;7.208;2022-08-01T01:55:52;24.00;53.10
4411;DHT22;2218;51.408;7.208;2022-08-01T01:58:22;24.00;53.10
4411;DHT22;2218;51.408;7.208;2022-08-01T02:00:52;23.90;53.00
4411;DHT22;2218;51.408;7.208;2022-08-01T02:03:24;23.90;53.60
4411;DHT22;2218;51.408;7.208;2022-08-01T02:05:53;24.00;53.20
4411;DHT22;2218;51.408;7.208;2022-08-01T02:08:23;24.00;53.20
4411;DHT22;2218;51.408;7.208;2022-08-01T02:10:53;23.90;53.10
4411;DHT22;2218;51.408;7.208;2022-08-01T02:13:40;23.90;53.10
4411;DHT22;2218;51.408;7.208;2022-08-01T02:16:10;23.90;53.20
4411;DHT22;2218;51.408;7.208;2022-08-01T02:18:39;23.90;53.20
4411;DHT22;2218;51.408;7.208;2022-08-01T02:21:10;23.90;53.20
4411;DHT22;2218;51.408;7.208;2022-08-01T02:23:40;23.90;53.20
4411;DHT22;2218;51.408;7.208;2022-08-01T02:26:14;23.90;53.20
4411;DHT22;2218;51.408;7.208;2022-08-01T02:28:47;23.90;53.30
4411;DHT22;2218;51.408;7.208;2022-08-01T02:31:21;23.90;53.20
4411;DHT22;2218;51.408;7.208;2022-08-01T02:33:55;23.90;53.30
4411;DHT22;2218;51.408;7.208;2022-08-01T02:36:26;23.90;53.30
4411;DHT22;2218;51.408;7.208;2022-08-01T02:38:56;23.90;53.30
4411;DHT22;2218;51.408;7.208;2022-08-01T02:41:26;23.90;53.40
4411;DHT22;2218;51.408;7.208;2022-08-01T02:43:59;23.90;53.50
4411;DHT22;2218;51.408;7.208;2022-08-01T02:46:34;23.90;53.40
4411;DHT22;2218;51.408;7.208;2022-08-01T02:49:07;23.90;53.40
4411;DHT22;2218;51.408;7.208;2022-08-01T02:51:39;23.90;53.50
4411;DHT22;2218;51.408;7.208;2022-08-01T02:54:08;23.90;53.50
4411;DHT22;2218;51.408;7.208;2022-08-01T02:56:38;23.90;53.50
4411;DHT22;2218;51.408;7.208;2022-08-01T02:59:10;23.90;53.50
4411;DHT22;2218;51.408;7.208;2022-08-01T03:01:44;23.90;53.50
4411;DHT22;2218;51.408;7.208;2022-08-01T03:04:12;23.90;53.50
4411;DHT22;2218;51.408;7.208;2022-08-01T03:06:43;23.90;53.50
4411;DHT22;2218;51.408;7.208;2022-08-01T03:09:13;23.90;53.50
4411;DHT22;2218;51.408;7.208;2022-08-01T03:11:42;23.90;53.70
4411;DHT22;2218;51.408;7.208;2022-08-01T03:14:11;23.90;53.60
4411;DHT22;2218;51.408;7.208;2022-08-01T03:16:43;23.90;53.60
4411;DHT22;2218;51.408;7.208;2022-08-01T03:19:13;23.90;53.70
4411;DHT22;2218;51.408;7.208;2022-08-01T03:21:43;23.90;53.70
4411;DHT22;2218;51.408;7.208;2022-08-01T03:24:13;23.90;53.60
4411;DHT22;2218;51.408;7.208;2022-08-01T03:26:41;23.90;53.80
4411;DHT22;2218;51.408;7.208;2022-08-01T03:29:14;23.90;53.70
4411;DHT22;2218;51.408;7.208;2022-08-01T03:31:45;23.90;53.70
4411;DHT22;2218;51.408;7.208;2022-08-01T03:34:14;23.90;53.80
4411;DHT22;2218;51.408;7.208;2022-08-01T03:36:45;23.90;53.80
4411;DHT22;2218;51.408;7.208;2022-08-01T03:39:16;23.90;53.80
4411;DHT22;2218;51.408;7.208;2022-08-01T03:41:51;23.90;53.80
4411;DHT22;2218;51.408;7.208;2022-08-01T03:44:25;23.90;53.80
4411;DHT22;2218;51.408;7.208;2022-08-01T03:47:00;23.90;53.90
4411;DHT22;2218;51.408;7.208;2022-08-01T03:49:32;23.90;53.90
4411;DHT22;2218;51.408;7.208;2022-08-01T03:52:04;23.90;53.90
4411;DHT22;2218;51.408;7.208;2022-08-01T03:54:36;23.90;53.90
4411;DHT22;2218;51.408;7.208;2022-08-01T03:57:07;23.90;54.40
4411;DHT22;2218;51.408;7.208;2022-08-01T03:59:36;23.90;53.90
4411;DHT22;2218;51.408;7.208;2022-08-01T04:02:06;23.90;54.00
4411;DHT22;2218;51.408;7.208;2022-08-01T04:04:33;23.90;54.00
4411;DHT22;2218;51.408;7.208;2022-08-01T04:07:01;23.90;54.10
4411;DHT22;2218;51.408;7.208;2022-08-01T04:09:32;23.90;54.00
4411;DHT22;2218;51.408;7.208;2022-08-01T04:12:00;23.90;54.10
4411;DHT22;2218;51.408;7.208;2022-08-01T04:14:27;23.90;54.10
4411;DHT22;2218;51.408;7.208;2022-08-01T04:16:55;23.90;54.10
4411;DHT22;2218;51.408;7.208;2022-08-01T04:19:23;23.90;54.10
4411;DHT22;2218;51.408;7.208;2022-08-01T04:21:51;23.90;54.10
4411;DHT22;2218;51.408;7.208;2022-08-01T04:24:19;23.90;54.10
4411;DHT22;2218;51.408;7.208;2022-08-01T04:26:50;23.90;54.10
4411;DHT22;2218;51.408;7.208;2022-08-01T04:29:20;23.90;54.10
4411;DHT22;2218;51.408;7.208;2022-08-01T04:31:50;23.90;54.10
4411;DHT22;2218;51.408;7.208;2022-08-01T04:34:23;23.90;54.20
4411;DHT22;2218;51.408;7.208;2022-08-01T04:36:55;23.90;54.20
4411;DHT22;2218;51.408;7.208;2022-08-01T04:39:25;23.90;54.20
4411;DHT22;2218;51.408;7.208;2022-08-01T04:41:56;23.90;54.30
4411;DHT22;2218;51.408;7.208;2022-08-01T04:44:26;23.90;54.20
4411;DHT22;2218;51.408;7.208;2022-08-01T04:46:54;23.90;54.30
4411;DHT22;2218;51.408;7.208;2022-08-01T04:49:23;23.90;54.30
4411;DHT22;2218;51.408;7.208;2022-08-01T04:51:51;23.90;54.30
4411;DHT22;2218;51.408;7.208;2022-08-01T04:54:23;23.90;54.30
4411;DHT22;2218;51.408;7.208;2022-08-01T04:56:51;23.90;54.30
4411;DHT22;2218;51.408;7.208;2022-08-01T04:59:19;23.90;54.30
4411;DHT22;2218;51.408;7.208;2022-08-01T05:02:03;23.90;54.30
4411;DHT22;2218;51.408;7.208;2022-08-01T05:04:32;23.90;54.40
4411;DHT22;2218;51.408;7.208;2022-08-01T05:06:59;23.90;54.40
4411;DHT22;2218;51.408;7.208;2022-08-01T05:09:26;23.90;54.40
4411;DHT22;2218;51.408;7.208;2022-08-01T05:11:54;23.90;54.40
4411;DHT22;2218;51.408;7.208;2022-08-01T05:14:23;23.90;54.50
4411;DHT22;2218;51.408;7.208;2022-08-01T05:16:51;23.90;54.40
4411;DHT22;2218;51.408;7.208;2022-08-01T05:19:18;23.90;54.50
4411;DHT22;2218;51.408;7.208;2022-08-01T05:21:47;23.90;54.40
4411;DHT22;2218;51.408;7.208;2022-08-01T05:24:14;23.90;54.50
4411;DHT22;2218;51.408;7.208;2022-08-01T05:26:41;23.90;54.50
4411;DHT22;2218;51.408;7.208;2022-08-01T05:29:07;23.90;55.00
4411;DHT22;2218;51.408;7.208;2022-08-01T05:31:34;23.90;54.50
4411;DHT22;2218;51.408;7.208;2022-08-01T05:34:02;23.90;54.50
4411;DHT22;2218;51.408;7.208;2022-08-01T05:36:29;23.90;54.50
4411;DHT22;2218;51.408;7.208;2022-08-01T05:38:57;23.90;54.60
4411;DHT22;2218;51.408;7.208;2022-08-01T05:41:24;23.90;54.60
4411;DHT22;2218;51.408;7.208;2022-08-01T05:43:51;23.90;54.60
4411;DHT22;2218;51.408;7.208;2022-08-01T05:46:18;23.90;54.60
4411;DHT22;2218;51.408;7.208;2022-08-01T05:48:45;23.90;54.60
4411;DHT22;2218;51.408;7.208;2022-08-01T05:51:12;23.90;54.60
4411;DHT22;2218;51.408;7.208;2022-08-01T05:53:39;23.90;54.60
4411;DHT22;2218;51.408;7.208;2022-08-01T05:56:08;23.90;54.60
4411;DHT22;2218;51.408;7.208;2022-08-01T05:58:35;23.90;54.60
4411;DHT22;2218;51.408;7.208;2022-08-01T06:01:02;23.90;54.70
4411;DHT22;2218;51.408;7.208;2022-08-01T06:03:29;23.90;54.60
4411;DHT22;2218;51.408;7.208;2022-08-01T06:05:59;23.90;54.60
4411;DHT22;2218;51.408;7.208;2022-08-01T06:08:26;23.90;54.60
4411;DHT22;2218;51.408;7.208;2022-08-01T06:10:53;23.80;54.60
4411;DHT22;2218;51.408;7.208;2022-08-01T06:13:21;23.80;54.60
4411;DHT22;2218;51.408;7.208;2022-08-01T06:15:49;23.90;54.60
4411;DHT22;2218;51.408;7.208;2022-08-01T06:18:16;23.90;54.70
4411;DHT22;2218;51.408;7.208;2022-08-01T06:20:44;23.80;54.60
4411;DHT22;2218;51.408;7.208;2022-08-01T06:23:11;23.90;54.70
4411;DHT22;2218;51.408;7.208;2022-08-01T06:25:38;23.90;54.70
4411;DHT22;2218;51.408;7.208;2022-08-01T06:28:05;23.90;54.80
4411;DHT22;2218;51.408;7.208;2022-08-01T06:30:34;23.90;54.70
4411;DHT22;2218;51.408;7.208;2022-08-01T06:33:01;23.90;54.70
4411;DHT22;2218;51.408;7.208;2022-08-01T06:35:28;23.90;54.70
4411;DHT22;2218;51.408;7.208;2022-08-01T06:37:56;23.90;54.70
4411;DHT22;2218;51.408;7.208;2022-08-01T06:40:24;23.80;54.70
4411;DHT22;2218;51.408;7.208;2022-08-01T06:42:51;23.90;54.80
4411;DHT22;2218;51.408;7.208;2022-08-01T06:45:18;23.90;54.70
4411;DHT22;2218;51.408;7.208;2022-08-01T06:47:49;23.90;54.70
4411;DHT22;2218;51.408;7.208;2022-08-01T06:50:15;23.90;54.80
4411;DHT22;2218;51.408;7.208;2022-08-01T06:52:42;23.90;54.80
4411;DHT22;2218;51.408;7.208;2022-08-01T06:55:10;23.90;54.80
4411;DHT22;2218;51.408;7.208;2022-08-01T06:57:45;23.80;54.70
4411;DHT22;2218;51.408;7.208;2022-08-01T07:00:14;23.90;54.80
4411;DHT22;2218;51.408;7.208;2022-08-01T07:02:44;23.80;54.60
4411;DHT22;2218;51.408;7.208;2022-08-01T07:05:12;23.90;54.70
4411;DHT22;2218;51.408;7.208;2022-08-01T07:07:39;23.90;54.70
4411;DHT22;2218;51.408;7.208;2022-08-01T07:10:07;23.90;54.60
4411;DHT22;2218;51.408;7.208;2022-08-01T07:12:35;23.90;54.60
4411;DHT22;2218;51.408;7.208;2022-08-01T07:15:04;23.90;54.60
4411;DHT22;2218;51.408;7.208;2022-08-01T07:17:32;23.90;54.60
4411;DHT22;2218;51.408;7.208;2022-08-01T07:19:59;23.90;54.60
4411;DHT22;2218;51.408;7.208;2022-08-01T07:22:27;23.90;54.50
4411;DHT22;2218;51.408;7.208;2022-08-01T07:24:54;23.90;54.50
4411;DHT22;2218;51.408;7.208;2022-08-01T07:27:21;23.90;54.50
4411;DHT22;2218;51.408;7.208;2022-08-01T07:29:48;23.90;54.50
4411;DHT22;2218;51.408;7.208;2022-08-01T07:32:15;23.90;54.40
4411;DHT22;2218;51.408;7.208;2022-08-01T07:34:42;23.90;54.40
4411;DHT22;2218;51.408;7.208;2022-08-01T07:37:09;23.90;54.90
4411;DHT22;2218;51.408;7.208;2022-08-01T07:39:37;23.90;54.50
4411;DHT22;2218;51.408;7.208;2022-08-01T07:42:04;23.90;54.40
4411;DHT22;2218;51.408;7.208;2022-08-01T07:44:31;23.90;54.40
4411;DHT22;2218;51.408;7.208;2022-08-01T07:46:58;23.90;54.40
4411;DHT22;2218;51.408;7.208;2022-08-01T07:49:25;23.90;54.30
4411;DHT22;2218;51.408;7.208;2022-08-01T07:51:52;23.90;54.30
4411;DHT22;2218;51.408;7.208;2022-08-01T07:54:19;23.90;54.30
4411;DHT22;2218;51.408;7.208;2022-08-01T07:56:50;23.90;54.30
4411;DHT22;2218;51.408;7.208;2022-08-01T07:59:17;24.00;54.90
4411;DHT22;2218;51.408;7.208;2022-08-01T08:01:48;23.90;54.30
4411;DHT22;2218;51.408;7.208;2022-08-01T08:04:15;24.00;54.30
4411;DHT22;2218;51.408;7.208;2022-08-01T08:06:42;24.00;54.20
4411;DHT22;2218;51.408;7.208;2022-08-01T08:09:10;24.00;54.20
4411;DHT22;2218;51.408;7.208;2022-08-01T08:11:37;24.00;54.20
4411;DHT22;2218;51.408;7.208;2022-08-01T08:14:05;24.00;54.20
4411;DHT22;2218;51.408;7.208;2022-08-01T08:16:32;24.00;54.10
4411;DHT22;2218;51.408;7.208;2022-08-01T08:18:59;24.00;54.10
4411;DHT22;2218;51.408;7.208;2022-08-01T08:21:26;24.00;54.10
4411;DHT22;2218;51.408;7.208;2022-08-01T08:23:54;24.00;54.10
4411;DHT22;2218;51.408;7.208;2022-08-01T08:26:38;24.00;54.00
4411;DHT22;2218;51.408;7.208;2022-08-01T08:29:07;24.10;54.10
4411;DHT22;2218;51.408;7.208;2022-08-01T08:31:35;24.00;54.00
4411;DHT22;2218;51.408;7.208;2022-08-01T08:34:01;24.00;54.00
4411;DHT22;2218;51.408;7.208;2022-08-01T08:36:29;24.00;53.90
4411;DHT22;2218;51.408;7.208;2022-08-01T08:38:55;24.10;54.00
4411;DHT22;2218;51.408;7.208;2022-08-01T08:41:22;24.10;54.00
4411;DHT22;2218;51.408;7.208;2022-08-01T08:43:49;24.00;53.90
4411;DHT22;2218;51.408;7.208;2022-08-01T08:46:19;24.10;54.00
4411;DHT22;2218;51.408;7.208;2022-08-01T08:48:47;24.10;53.90
4411;DHT22;2218;51.408;7.208;2022-08-01T08:51:17;24.10;53.90
4411;DHT22;2218;51.408;7.208;2022-08-01T08:53:46;24.10;53.90
4411;DHT22;2218;51.408;7.208;2022-08-01T08:56:14;24.10;53.90
4411;DHT22;2218;51.408;7.208;2022-08-01T08:58:44;24.10;53.90
4411;DHT22;2218;51.408;7.208;2022-08-01T09:01:12;24.10;53.90
4411;DHT22;2218;51.408;7.208;2022-08-01T09:03:40;24.10;53.90
4411;DHT22;2218;51.408;7.208;2022-08-01T09:06:07;24.10;53.80
4411;DHT22;2218;51.408;7.208;2022-08-01T09:08:34;24.10;53.80
4411;DHT22;2218;51.408;7.208;2022-08-01T09:11:02;24.10;53.80
4411;DHT22;2218;51.408;7.208;2022-08-01T09:13:30;24.10;53.80
4411;DHT22;2218;51.408;7.208;2022-08-01T09:15:57;24.10;53.80
4411;DHT22;2218;51.408;7.208;2022-08-01T09:18:30;24.10;53.80
4411;DHT22;2218;51.408;7.208;2022-08-01T09:21:24;24.10;53.80
4411;DHT22;2218;51.408;7.208;2022-08-01T09:23:53;24.10;53.70
4411;DHT22;2218;51.408;7.208;2022-08-01T09:26:29;24.10;53.70
4411;DHT22;2218;51.408;7.208;2022-08-01T09:28:58;24.10;53.70
4411;DHT22;2218;51.408;7.208;2022-08-01T09:31:28;24.10;53.70
4411;DHT22;2218;51.408;7.208;2022-08-01T09:33:57;24.10;53.70
4411;DHT22;2218;51.408;7.208;2022-08-01T09:36:43;24.10;53.70
4411;DHT22;2218;51.408;7.208;2022-08-01T09:39:14;24.10;53.70
4411;DHT22;2218;51.408;7.208;2022-08-01T09:41:41;24.10;53.70
4411;DHT22;2218;51.408;7.208;2022-08-01T09:44:09;24.10;53.80
4411;DHT22;2218;51.408;7.208;2022-08-01T09:46:48;24.10;53.70
4411;DHT22;2218;51.408;7.208;2022-08-01T09:49:27;24.10;53.70
4411;DHT22;2218;51.408;7.208;2022-08-01T09:51:58;24.10;53.70
4411;DHT22;2218;51.408;7.208;2022-08-01T09:54:31;24.10;53.60
4411;DHT22;2218;51.408;7.208;2022-08-01T09:57:14;24.10;53.60
4411;DHT22;2218;51.408;7.208;2022-08-01T09:59:43;24.10;53.60
4411;DHT22;2218;51.408;7.208;2022-08-01T10:02:13;24.10;53.60
4411;DHT22;2218;51.408;7.208;2022-08-01T10:04:48;24.10;53.60
4411;DHT22;2218;51.408;7.208;2022-08-01T10:07:19;24.10;53.50
4411;DHT22;2218;51.408;7.208;2022-08-01T10:09:46;24.10;53.50
4411;DHT22;2218;51.408;7.208;2022-08-01T10:12:14;24.10;53.50
4411;DHT22;2218;51.408;7.208;2022-08-01T10:14:45;24.10;53.50
4411;DHT22;2218;51.408;7.208;2022-08-01T10:17:16;24.20;53.50
4411;DHT22;2218;51.408;7.208;2022-08-01T10:19:44;24.10;53.40
4411;DHT22;2218;51.408;7.208;2022-08-01T10:22:14;24.10;53.40
4411;DHT22;2218;51.408;7.208;2022-08-01T10:24:45;24.10;53.40
4411;DHT22;2218;51.408;7.208;2022-08-01T10:27:14;24.10;53.50
4411;DHT22;2218;51.408;7.208;2022-08-01T10:29:47;24.10;53.40
4411;DHT22;2218;51.408;7.208;2022-08-01T10:32:18;24.10;53.40
4411;DHT22;2218;51.408;7.208;2022-08-01T10:34:46;24.20;53.50
4411;DHT22;2218;51.408;7.208;2022-08-01T10:37:13;24.10;53.40
4411;DHT22;2218;51.408;7.208;2022-08-01T10:39:44;24.10;53.40
4411;DHT22;2218;51.408;7.208;2022-08-01T10:42:11;24.10;53.30
4411;DHT22;2218;51.408;7.208;2022-08-01T10:44:39;24.20;53.40
4411;DHT22;2218;51.408;7.208;2022-08-01T10:47:09;24.10;53.40
4411;DHT22;2218;51.408;7.208;2022-08-01T10:49:44;24.20;53.40
4411;DHT22;2218;51.408;7.208;2022-08-01T10:52:15;24.20;53.40
4411;DHT22;2218;51.408;7.208;2022-08-01T10:54:44;24.20;53.40
4411;DHT22;2218;51.408;7.208;2022-08-01T10:57:12;24.20;53.50
4411;DHT22;2218;51.408;7.208;2022-08-01T10:59:48;24.10;53.40
4411;DHT22;2218;51.408;7.208;2022-08-01T11:02:26;24.20;53.50
4411;DHT22;2218;51.408;7.208;2022-08-01T11:04:58;24.20;53.50
4411;DHT22;2218;51.408;7.208;2022-08-01T11:07:47;24.20;53.50
4411;DHT22;2218;51.408;7.208;2022-08-01T11:10:25;24.20;53.50
4411;DHT22;2218;51.408;7.208;2022-08-01T11:13:03;24.20;53.40
4411;DHT22;2218;51.408;7.208;2022-08-01T11:15:33;24.20;53.40
4411;DHT22;2218;51.408;7.208;2022-08-01T11:18:02;24.20;53.40
4411;DHT22;2218;51.408;7.208;2022-08-01T11:20:31;24.20;53.50
4411;DHT22;2218;51.408;7.208;2022-08-01T11:23:23;24.20;53.50
4411;DHT22;2218;51.408;7.208;2022-08-01T11:26:12;24.20;53.50
4411;DHT22;2218;51.408;7.208;2022-08-01T11:28:43;24.20;53.50
4411;DHT22;2218;51.408;7.208;2022-08-01T11:31:28;24.20;53.50
4411;DHT22;2218;51.408;7.208;2022-08-01T11:33:57;24.20;53.50
4411;DHT22;2218;51.408;7.208;2022-08-01T11:36:25;24.20;53.50
4411;DHT22;2218;51.408;7.208;2022-08-01T11:39:14;24.20;53.50
4411;DHT22;2218;51.408;7.208;2022-08-01T11:41:45;24.20;53.50
4411;DHT22;2218;51.408;7.208;2022-08-01T11:44:21;24.20;53.50
4411;DHT22;2218;51.408;7.208;2022-08-01T11:46:56;24.20;53.40
4411;DHT22;2218;51.408;7.208;2022-08-01T11:52:27;24.20;53.40
4411;DHT22;2218;51.408;7.208;2022-08-01T11:55:05;24.20;53.40
4411;DHT22;2218;51.408;7.208;2022-08-01T11:57:36;24.20;53.60
4411;DHT22;2218;51.408;7.208;2022-08-01T12:00:10;24.20;53.50
4411;DHT22;2218;51.408;7.208;2022-08-01T12:02:39;24.20;53.40
4411;DHT22;2218;51.408;7.208;2022-08-01T12:05:07;24.20;53.50
4411;DHT22;2218;51.408;7.208;2022-08-01T12:07:38;24.20;53.40
4411;DHT22;2218;51.408;7.208;2022-08-01T12:10:08;24.20;53.40
4411;DHT22;2218;51.408;7.208;2022-08-01T12:12:43;24.20;53.40
4411;DHT22;2218;51.408;7.208;2022-08-01T12:15:12;24.20;53.40
4411;DHT22;2218;51.408;7.208;2022-08-01T12:17:41;24.20;53.50
4411;DHT22;2218;51.408;7.208;2022-08-01T12:20:11;24.20;53.40
4411;DHT22;2218;51.408;7.208;2022-08-01T12:22:40;24.20;53.40
4411;DHT22;2218;51.408;7.208;2022-08-01T12:25:09;24.20;53.40
4411;DHT22;2218;51.408;7.208;2022-08-01T12:27:40;24.20;53.40
4411;DHT22;2218;51.408;7.208;2022-08-01T12:30:09;24.20;53.50
4411;DHT22;2218;51.408;7.208;2022-08-01T12:32:39;24.20;53.40
4411;DHT22;2218;51.408;7.208;2022-08-01T12:35:08;24.20;53.50
4411;DHT22;2218;51.408;7.208;2022-08-01T12:37:37;24.20;53.40
4411;DHT22;2218;51.408;7.208;2022-08-01T12:40:10;24.20;53.40
4411;DHT22;2218;51.408;7.208;2022-08-01T12:42:42;24.20;53.40
4411;DHT22;2218;51.408;7.208;2022-08-01T12:45:13;24.20;53.40
4411;DHT22;2218;51.408;7.208;2022-08-01T12:47:42;24.20;53.40
4411;DHT22;2218;51.408;7.208;2022-08-01T12:50:12;24.30;53.50
4411;DHT22;2218;51.408;7.208;2022-08-01T12:52:40;24.20;53.50
4411;DHT22;2218;51.408;7.208;2022-08-01T12:55:11;24.30;53.60
4411;DHT22;2218;51.408;7.208;2022-08-01T12:57:43;24.20;53.40
4411;DHT22;2218;51.408;7.208;2022-08-01T13:00:20;24.20;53.40
4411;DHT22;2218;51.408;7.208;2022-08-01T13:02:58;24.30;53.50
4411;DHT22;2218;51.408;7.208;2022-08-01T13:05:27;24.20;53.30
4411;DHT22;2218;51.408;7.208;2022-08-01T13:07:54;24.30;53.40
4411;DHT22;2218;51.408;7.208;2022-08-01T13:10:26;24.20;53.30
4411;DHT22;2218;51.408;7.208;2022-08-01T13:12:57;24.30;53.40
4411;DHT22;2218;51.408;7.208;2022-08-01T13:15:28;24.20;53.40
4411;DHT22;2218;51.408;7.208;2022-08-01T13:17:58;24.20;53.40
4411;DHT22;2218;51.408;7.208;2022-08-01T13:20:30;24.20;53.50
4411;DHT22;2218;51.408;7.208;2022-08-01T13:23:13;24.20;53.50
4411;DHT22;2218;51.408;7.208;2022-08-01T13:25:49;24.30;53.50
4411;DHT22;2218;51.408;7.208;2022-08-01T13:28:21;24.30;53.50
4411;DHT22;2218;51.408;7.208;2022-08-01T13:30:55;24.20;53.40
4411;DHT22;2218;51.408;7.208;2022-08-01T13:33:25;24.20;53.50
4411;DHT22;2218;51.408;7.208;2022-08-01T13:35:55;24.20;53.40
4411;DHT22;2218;51.408;7.208;2022-08-01T13:38:22;24.30;53.60
4411;DHT22;2218;51.408;7.208;2022-08-01T13:41:04;24.30;53.50
4411;DHT22;2218;51.408;7.208;2022-08-01T13:43:32;24.30;53.60
4411;DHT22;2218;51.408;7.208;2022-08-01T13:46:00;24.20;53.60
4411;DHT22;2218;51.408;7.208;2022-08-01T13:48:30;24.30;53.70
4411;DHT22;2218;51.408;7.208;2022-08-01T13:50:58;24.20;53.60
4411;DHT22;2218;51.408;7.208;2022-08-01T13:53:25;24.30;53.80
4411;DHT22;2218;51.408;7.208;2022-08-01T13:55:52;24.30;53.90
4411;DHT22;2218;51.408;7.208;2022-08-01T13:58:19;24.30;54.30
4411;DHT22;2218;51.408;7.208;2022-08-01T14:00:48;24.30;54.30
4411;DHT22;2218;51.408;7.208;2022-08-01T14:03:15;24.30;54.10
4411;DHT22;2218;51.408;7.208;2022-08-01T14:05:42;24.30;54.20
4411;DHT22;2218;51.408;7.208;2022-08-01T14:08:10;24.30;54.10
4411;DHT22;2218;51.408;7.208;2022-08-01T14:10:37;24.30;54.10
4411;DHT22;2218;51.408;7.208;2022-08-01T14:13:04;24.30;54.20
4411;DHT22;2218;51.408;7.208;2022-08-01T14:15:31;24.30;54.20
4411;DHT22;2218;51.408;7.208;2022-08-01T14:18:00;24.30;54.20
4411;DHT22;2218;51.408;7.208;2022-08-01T14:20:27;24.30;54.20
4411;DHT22;2218;51.408;7.208;2022-08-01T14:22:54;24.30;54.30
4411;DHT22;2218;51.408;7.208;2022-08-01T14:25:21;24.30;54.20
4411;DHT22;2218;51.408;7.208;2022-08-01T14:27:48;24.30;54.10
4411;DHT22;2218;51.408;7.208;2022-08-01T14:30:15;24.30;54.20
4411;DHT22;2218;51.408;7.208;2022-08-01T14:32:42;24.30;54.30
4411;DHT22;2218;51.408;7.208;2022-08-01T14:35:10;24.30;54.30
4411;DHT22;2218;51.408;7.208;2022-08-01T14:37:37;24.30;54.30
4411;DHT22;2218;51.408;7.208;2022-08-01T14:40:06;24.30;54.40
4411;DHT22;2218;51.408;7.208;2022-08-01T14:42:35;24.30;54.40
4411;DHT22;2218;51.408;7.208;2022-08-01T14:45:03;24.30;54.40
4411;DHT22;2218;51.408;7.208;2022-08-01T14:47:34;24.30;54.40
4411;DHT22;2218;51.408;7.208;2022-08-01T14:50:04;24.30;54.40
4411;DHT22;2218;51.408;7.208;2022-08-01T14:52:34;24.30;54.40
4411;DHT22;2218;51.408;7.208;2022-08-01T14:55:02;24.30;54.30
4411;DHT22;2218;51.408;7.208;2022-08-01T14:57:30;24.30;54.30
4411;DHT22;2218;51.408;7.208;2022-08-01T14:59:57;24.30;54.30
4411;DHT22;2218;51.408;7.208;2022-08-01T15:02:24;24.30;54.30
4411;DHT22;2218;51.408;7.208;2022-08-01T15:04:51;24.20;54.30
4411;DHT22;2218;51.408;7.208;2022-08-01T15:07:19;24.30;54.30
4411;DHT22;2218;51.408;7.208;2022-08-01T15:09:47;24.30;54.40
4411;DHT22;2218;51.408;7.208;2022-08-01T15:12:14;24.30;54.30
4411;DHT22;2218;51.408;7.208;2022-08-01T15:14:41;24.20;54.30
4411;DHT22;2218;51.408;7.208;2022-08-01T15:17:14;24.30;54.40
4411;DHT22;2218;51.408;7.208;2022-08-01T15:19:42;24.30;54.30
4411;DHT22;2218;51.408;7.208;2022-08-01T15:22:09;24.20;54.30
4411;DHT22;2218;51.408;7.208;2022-08-01T15:24:36;24.20;54.30
4411;DHT22;2218;51.408;7.208;2022-08-01T15:27:05;24.20;54.30
4411;DHT22;2218;51.408;7.208;2022-08-01T15:29:32;24.30;54.40
4411;DHT22;2218;51.408;7.208;2022-08-01T15:31:59;24.30;54.30
4411;DHT22;2218;51.408;7.208;2022-08-01T15:34:26;24.30;54.30
4411;DHT22;2218;51.408;7.208;2022-08-01T15:36:54;24.30;54.30
4411;DHT22;2218;51.408;7.208;2022-08-01T15:39:21;24.30;54.30
4411;DHT22;2218;51.408;7.208;2022-08-01T15:41:48;24.20;54.20
4411;DHT22;2218;51.408;7.208;2022-08-01T15:44:17;24.20;54.20
4411;DHT22;2218;51.408;7.208;2022-08-01T15:46:47;24.30;54.30
4411;DHT22;2218;51.408;7.208;2022-08-01T15:49:15;24.30;54.30
4411;DHT22;2218;51.408;7.208;2022-08-01T15:51:42;24.20;54.30
4411;DHT22;2218;51.408;7.208;2022-08-01T15:54:10;24.20;54.20
4411;DHT22;2218;51.408;7.208;2022-08-01T15:56:37;24.20;54.20
4411;DHT22;2218;51.408;7.208;2022-08-01T15:59:05;24.20;54.20
4411;DHT22;2218;51.408;7.208;2022-08-01T16:01:33;24.30;54.30
4411;DHT22;2218;51.408;7.208;2022-08-01T16:04:00;24.20;54.20
4411;DHT22;2218;51.408;7.208;2022-08-01T16:06:28;24.20;54.20
4411;DHT22;2218;51.408;7.208;2022-08-01T16:08:55;24.20;54.20
4411;DHT22;2218;51.408;7.208;2022-08-01T16:11:23;24.20;54.20
4411;DHT22;2218;51.408;7.208;2022-08-01T16:13:52;24.20;54.20
4411;DHT22;2218;51.408;7.208;2022-08-01T16:16:20;24.20;54.20
4411;DHT22;2218;51.408;7.208;2022-08-01T16:18:49;24.20;54.20
4411;DHT22;2218;51.408;7.208;2022-08-01T16:21:16;24.30;54.20
4411;DHT22;2218;51.408;7.208;2022-08-01T16:23:45;24.30;54.20